sensor_id;sensor_type;location;lat;lon;timestamp;P1;durP1;ratioP1;P2;durP2;ratioP2
70388;SDS011;58659;49.050;8.530;2022-09-03T04:06:06;1.10;;;0.90;;
70388;SDS011;58659;49.050;8.530;2022-09-03T04:13:29;1.23;;;0.73;;
70388;SDS011;58659;49.050;8.530;2022-09-03T04:16:00;3.23;;;0.87;;
70388;SDS011;58659;49.050;8.530;2022-09-03T04:18:29;2.30;;;0.90;;
70388;SDS011;58659;49.050;8.530;2022-09-03T04:21:29;1.50;;;1.00;;
70388;SDS011;58659;49.050;8.530;2022-09-03T04:23:52;3.73;;;0.77;;
70388;SDS011;58659;49.050;8.530;2022-09-03T04:26:20;1.60;;;0.80;;
70388;SDS011;58659;49.050;8.530;2022-09-03T04:28:47;1.50;;;0.90;;
70388;SDS011;58659;49.050;8.530;2022-09-03T04:31:13;1.60;;;0.93;;
70388;SDS011;58659;49.050;8.530;2022-09-03T04:33:39;1.33;;;0.93;;
70388;SDS011;58659;49.050;8.530;2022-09-03T04:36:09;1.20;;;0.80;;
70388;SDS011;58659;49.050;8.530;2022-09-03T04:38:40;1.23;;;0.70;;
70388;SDS011;58659;49.050;8.530;2022-09-03T04:41:07;1.53;;;0.80;;
70388;SDS011;58659;49.050;8.530;2022-09-03T04:43:33;0.60;;;0.50;;
70388;SDS011;58659;49.050;8.530;2022-09-03T04:46:00;1.37;;;1.00;;
70388;SDS011;58659;49.050;8.530;2022-09-03T04:48:27;1.13;;;0.90;;
70388;SDS011;58659;49.050;8.530;2022-09-03T04:50:54;1.00;;;0.90;;
70388;SDS011;58659;49.050;8.530;2022-09-03T04:53:20;1.97;;;0.57;;
70388;SDS011;58659;49.050;8.530;2022-09-03T04:55:46;1.80;;;0.80;;
70388;SDS011;58659;49.050;8.530;2022-09-03T04:58:12;1.17;;;0.80;;
70388;SDS011;58659;49.050;8.530;2022-09-03T05:00:37;1.00;;;0.60;;
70388;SDS011;58659;49.050;8.530;2022-09-03T05:03:03;1.93;;;0.80;;
70388;SDS011;58659;49.050;8.530;2022-09-03T05:05:29;0.80;;;0.50;;
70388;SDS011;58659;49.050;8.530;2022-09-03T05:07:59;2.13;;;0.90;;
70388;SDS011;58659;49.050;8.530;2022-09-03T05:10:28;1.33;;;0.90;;
70388;SDS011;58659;49.050;8.530;2022-09-03T05:12:58;1.73;;;0.80;;
70388;SDS011;58659;49.050;8.530;2022-09-03T05:15:25;1.13;;;0.83;;
70388;SDS011;58659;49.050;8.530;2022-09-03T05:17:54;1.07;;;0.97;;
70388;SDS011;58659;49.050;8.530;2022-09-03T05:20:20;3.57;;;0.77;;
70388;SDS011;58659;49.050;8.530;2022-09-03T05:22:46;0.87;;;0.63;;
70388;SDS011;58659;49.050;8.530;2022-09-03T05:25:12;0.90;;;0.70;;
70388;SDS011;58659;49.050;8.530;2022-09-03T05:27:37;1.80;;;0.90;;
70388;SDS011;58659;49.050;8.530;2022-09-03T05:30:03;4.30;;;0.87;;
70388;SDS011;58659;49.050;8.530;2022-09-03T05:32:29;1.70;;;1.00;;
70388;SDS011;58659;49.050;8.530;2022-09-03T05:34:55;2.90;;;1.23;;
70388;SDS011;58659;49.050;8.530;2022-09-03T05:37:20;2.73;;;0.90;;
70388;SDS011;58659;49.050;8.530;2022-09-03T05:39:47;1.57;;;0.90;;
70388;SDS011;58659;49.050;8.530;2022-09-03T05:42:12;2.50;;;0.87;;
70388;SDS011;58659;49.050;8.530;2022-09-03T05:44:39;1.73;;;0.90;;
70388;SDS011;58659;49.050;8.530;2022-09-03T05:47:04;10.60;;;1.20;;
70388;SDS011;58659;49.050;8.530;2022-09-03T05:49:29;1.47;;;0.80;;
70388;SDS011;58659;49.050;8.530;2022-09-03T05:51:55;5.00;;;1.40;;
70388;SDS011;58659;49.050;8.530;2022-09-03T05:54:21;3.70;;;1.50;;
70388;SDS011;58659;49.050;8.530;2022-09-03T05:56:46;4.00;;;1.23;;
70388;SDS011;58659;49.050;8.530;2022-09-03T05:59:12;2.30;;;1.00;;
70388;SDS011;58659;49.050;8.530;2022-09-03T06:01:38;1.30;;;0.70;;
70388;SDS011;58659;49.050;8.530;2022-09-03T06:04:07;1.90;;;0.97;;
70388;SDS011;58659;49.050;8.530;2022-09-03T06:06:35;1.20;;;0.90;;
70388;SDS011;58659;49.050;8.530;2022-09-03T06:09:06;2.57;;;1.10;;
70388;SDS011;58659;49.050;8.530;2022-09-03T06:11:33;1.73;;;1.00;;
70388;SDS011;58659;49.050;8.530;2022-09-03T06:14:00;1.70;;;0.90;;
70388;SDS011;58659;49.050;8.530;2022-09-03T06:16:29;1.10;;;0.93;;
70388;SDS011;58659;49.050;8.530;2022-09-03T06:18:55;1.43;;;0.90;;
70388;SDS011;58659;49.050;8.530;2022-09-03T06:21:21;4.53;;;0.97;;
70388;SDS011;58659;49.050;8.530;2022-09-03T06:23:50;0.90;;;0.70;;
70388;SDS011;58659;49.050;8.530;2022-09-03T06:26:17;1.67;;;0.73;;
70388;SDS011;58659;49.050;8.530;2022-09-03T06:28:44;1.53;;;0.97;;
70388;SDS011;58659;49.050;8.530;2022-09-03T06:31:12;4.87;;;1.00;;
70388;SDS011;58659;49.050;8.530;2022-09-03T09:11:25;4.93;;;2.07;;
70388;SDS011;58659;49.050;8.530;2022-09-03T09:13:51;2.97;;;2.00;;
70388;SDS011;58659;49.050;8.530;2022-09-03T09:26:16;2.17;;;1.70;;
70388;SDS011;58659;49.050;8.530;2022-09-03T09:28:44;4.07;;;1.80;;
70388;SDS011;58659;49.050;8.530;2022-09-03T09:51:04;8.63;;;2.30;;
70388;SDS011;58659;49.050;8.530;2022-09-03T09:53:32;5.20;;;2.67;;
70388;SDS011;58659;49.050;8.530;2022-09-03T09:55:59;4.47;;;2.47;;
70388;SDS011;58659;49.050;8.530;2022-09-03T09:58:27;5.93;;;3.00;;
70388;SDS011;58659;49.050;8.530;2022-09-03T10:00:55;5.60;;;2.73;;
70388;SDS011;58659;49.050;8.530;2022-09-03T10:03:20;3.83;;;2.40;;
70388;SDS011;58659;49.050;8.530;2022-09-03T11:16:31;3.87;;;2.07;;
70388;SDS011;58659;49.050;8.530;2022-09-03T11:19:17;4.30;;;2.00;;
70388;SDS011;58659;49.050;8.530;2022-09-03T11:21:46;4.37;;;2.30;;
70388;SDS011;58659;49.050;8.530;2022-09-03T11:24:13;3.67;;;2.30;;
70388;SDS011;58659;49.050;8.530;2022-09-03T11:26:45;3.93;;;2.00;;
70388;SDS011;58659;49.050;8.530;2022-09-03T11:29:21;8.07;;;2.33;;
70388;SDS011;58659;49.050;8.530;2022-09-03T11:32:03;5.97;;;2.50;;
70388;SDS011;58659;49.050;8.530;2022-09-03T11:34:51;4.37;;;2.20;;
70388;SDS011;58659;49.050;8.530;2022-09-03T11:37:25;3.57;;;2.30;;
70388;SDS011;58659;49.050;8.530;2022-09-03T11:40:27;5.10;;;2.47;;
70388;SDS011;58659;49.050;8.530;2022-09-03T11:42:45;4.33;;;2.57;;
70388;SDS011;58659;49.050;8.530;2022-09-03T11:47:43;3.80;;;2.23;;
70388;SDS011;58659;49.050;8.530;2022-09-03T15:50:23;0.93;;;0.30;;
70388;SDS011;58659;49.050;8.530;2022-09-03T15:53:05;0.40;;;0.40;;
70388;SDS011;58659;49.050;8.530;2022-09-03T15:55:49;0.60;;;0.40;;
70388;SDS011;58659;49.050;8.530;2022-09-03T15:58:34;0.50;;;0.30;;
70388;SDS011;58659;49.050;8.530;2022-09-03T16:01:09;2.67;;;0.47;;
70388;SDS011;58659;49.050;8.530;2022-09-03T16:04:07;0.73;;;0.40;;
70388;SDS011;58659;49.050;8.530;2022-09-03T16:06:46;0.50;;;0.40;;
70388;SDS011;58659;49.050;8.530;2022-09-03T16:11:55;0.40;;;0.30;;
70388;SDS011;58659;49.050;8.530;2022-09-03T16:14:34;1.50;;;0.43;;
70388;SDS011;58659;49.050;8.530;2022-09-03T16:22:24;1.50;;;0.43;;
70388;SDS011;58659;49.050;8.530;2022-09-03T16:27:24;0.90;;;0.60;;
70388;SDS011;58659;49.050;8.530;2022-09-03T16:30:13;1.17;;;0.60;;
70388;SDS011;58659;49.050;8.530;2022-09-03T16:47:32;1.50;;;0.60;;
70388;SDS011;58659;49.050;8.530;2022-09-03T16:50:29;2.67;;;0.63;;
70388;SDS011;58659;49.050;8.530;2022-09-03T17:04:30;0.40;;;0.40;;
70388;SDS011;58659;49.050;8.530;2022-09-03T17:18:21;0.83;;;0.63;;
70388;SDS011;58659;49.050;8.530;2022-09-03T17:21:15;0.90;;;0.47;;
70388;SDS011;58659;49.050;8.530;2022-09-03T18:19:48;0.30;;;0.30;;
70388;SDS011;58659;49.050;8.530;2022-09-03T19:52:08;0.60;;;0.50;;
70388;SDS011;58659;49.050;8.530;2022-09-03T19:55:09;0.77;;;0.50;;
70388;SDS011;58659;49.050;8.530;2022-09-03T19:57:58;1.43;;;0.70;;
70388;SDS011;58659;49.050;8.530;2022-09-03T20:00:43;1.57;;;0.80;;
70388;SDS011;58659;49.050;8.530;2022-09-03T20:03:28;1.13;;;0.57;;
70388;SDS011;58659;49.050;8.530;2022-09-03T20:06:13;2.23;;;0.80;;
70388;SDS011;58659;49.050;8.530;2022-09-03T20:08:59;1.10;;;0.73;;
70388;SDS011;58659;49.050;8.530;2022-09-03T20:11:48;1.40;;;0.70;;
70388;SDS011;58659;49.050;8.530;2022-09-03T20:14:14;1.23;;;0.80;;
70388;SDS011;58659;49.050;8.530;2022-09-03T20:33:04;1.30;;;0.80;;
70388;SDS011;58659;49.050;8.530;2022-09-03T20:35:51;0.50;;;0.40;;
70388;SDS011;58659;49.050;8.530;2022-09-03T20:47:03;1.80;;;1.00;;
70388;SDS011;58659;49.050;8.530;2022-09-03T20:52:12;2.10;;;0.70;;
70388;SDS011;58659;49.050;8.530;2022-09-03T20:57:48;1.53;;;0.90;;
70388;SDS011;58659;49.050;8.530;2022-09-03T21:00:17;1.53;;;0.80;;
70388;SDS011;58659;49.050;8.530;2022-09-03T21:05:26;1.23;;;0.70;;
70388;SDS011;58659;49.050;8.530;2022-09-03T21:08:09;1.10;;;0.73;;
70388;SDS011;58659;49.050;8.530;2022-09-03T21:10:46;1.57;;;1.00;;
70388;SDS011;58659;49.050;8.530;2022-09-03T21:18:38;1.20;;;0.50;;
70388;SDS011;58659;49.050;8.530;2022-09-03T21:21:18;0.63;;;0.53;;
70388;SDS011;58659;49.050;8.530;2022-09-03T21:23:47;5.80;;;0.70;;
70388;SDS011;58659;49.050;8.530;2022-09-03T21:26:31;0.60;;;0.50;;
70388;SDS011;58659;49.050;8.530;2022-09-03T21:29:18;1.67;;;0.97;;
70388;SDS011;58659;49.050;8.530;2022-09-03T21:34:18;1.03;;;0.70;;
70388;SDS011;58659;49.050;8.530;2022-09-03T21:36:49;1.53;;;1.07;;
70388;SDS011;58659;49.050;8.530;2022-09-03T21:42:00;6.37;;;1.00;;
